Terminal Aerodrome Forecast
Issued by NWS Anchorage, AK

Home | Current Version | Previous Version | Text Only | Print | Product List | Glossary On
Versions: 1 2 3 4 5 6 7 8 9 10 11 12 13 14 15 16 17 18 19 20 21 22 23 24 25 26
000
FTAK31 PANC 210313 AAB
TAFANC
TAF AMD
PANC 210313Z 2103/2206 01008KT 2SM -SN SCT010 OVC020
      TEMPO 2103/2107 1/2SM SN FZFG SCT005 OVC010
     FM211600 36004KT 5SM -SHSN SCT020 OVC035=

USA.gov is the U.S. government's official web portal to all federal, state and local government web resources and services.